createdAt,value
2019-04-23T00:01:56.886Z,3.30
2019-04-23T00:06:10.311Z,3.43
2019-04-23T00:10:06.575Z,3.20
2019-04-23T00:14:10.080Z,2.57
2019-04-23T00:18:07.474Z,2.83
2019-04-23T00:22:20.187Z,4.40
2019-04-23T00:26:23.828Z,3.63
2019-04-23T00:30:36.245Z,3.87
2019-04-23T00:34:38.071Z,3.43
2019-04-23T00:42:56.817Z,3.97
2019-04-23T00:46:43.466Z,3.80
2019-04-23T00:50:52.218Z,3.97
2019-04-23T00:54:49.133Z,3.87
2019-04-23T00:58:48.020Z,4.37
2019-04-23T01:02:53.070Z,4.43
2019-04-23T01:06:51.190Z,4.07
2019-04-23T01:11:09.614Z,4.83
2019-04-23T01:15:02.190Z,4.60
2019-04-23T01:19:18.855Z,4.07
2019-04-23T01:23:03.267Z,5.27
2019-04-23T01:31:33.150Z,4.00
2019-04-23T01:35:32.635Z,4.93
2019-04-23T01:39:38.357Z,5.50
2019-04-23T01:43:44.341Z,4.87
2019-04-23T01:51:55.214Z,4.87
2019-04-23T01:55:54.458Z,4.70
2019-04-23T02:00:02.022Z,5.27
2019-04-23T02:04:18.749Z,4.60
2019-04-23T02:08:06.556Z,4.63
2019-04-23T02:12:07.662Z,5.43
2019-04-23T02:16:05.012Z,5.73
2019-04-23T02:24:15.907Z,5.50
2019-04-23T02:28:19.033Z,5.73
2019-04-23T02:36:26.408Z,5.97
2019-04-23T02:40:38.272Z,5.33
2019-04-23T02:44:31.856Z,6.20
2019-04-23T02:52:38.750Z,5.47
2019-04-23T02:56:47.065Z,6.10
2019-04-23T03:04:52.222Z,6.13
2019-04-23T03:08:52.958Z,7.23
2019-04-23T03:13:04.428Z,6.83
2019-04-23T03:17:11.167Z,5.50
2019-04-23T03:21:52.838Z,6.20
2019-04-23T03:29:49.010Z,6.70
2019-04-23T03:37:52.680Z,6.07
2019-04-23T03:41:53.496Z,5.57
2019-04-23T03:58:04.677Z,6.47
2019-04-23T04:02:20.918Z,6.53
2019-04-23T04:06:16.363Z,7.23
2019-04-23T04:10:02.520Z,6.47
2019-04-23T04:22:26.878Z,7.03
2019-04-23T04:26:35.200Z,6.93
2019-04-23T04:30:29.569Z,7.67
2019-04-23T04:35:00.311Z,8.83
2019-04-23T04:42:59.043Z,8.03
2019-04-23T04:46:39.961Z,7.00
2019-04-23T04:54:26.400Z,7.07
2019-04-23T04:58:47.019Z,7.70
2019-04-23T05:03:01.089Z,8.40
2019-04-23T05:07:04.433Z,7.43
2019-04-23T05:19:19.788Z,7.60
2019-04-23T05:23:06.034Z,7.13
2019-04-23T05:27:04.546Z,8.67
2019-04-23T05:31:12.133Z,7.27
2019-04-23T05:35:09.982Z,6.90
2019-04-23T05:39:15.491Z,8.07
2019-04-23T05:43:12.314Z,7.87
2019-04-23T05:47:25.445Z,7.40
2019-04-23T05:51:31.194Z,7.47
2019-04-23T05:55:20.110Z,7.63
2019-04-23T05:59:26.231Z,9.27
2019-04-23T06:03:48.926Z,8.37
2019-04-23T06:11:47.350Z,7.93
2019-04-23T06:15:40.261Z,8.93
2019-04-23T06:19:36.685Z,9.17
2019-04-23T06:27:48.959Z,9.17
2019-04-23T06:31:48.840Z,8.93
2019-04-23T06:35:58.968Z,9.90
2019-04-23T06:39:55.178Z,9.87
2019-04-23T06:44:11.571Z,9.10
2019-04-23T06:48:09.019Z,8.63
2019-04-23T06:56:06.800Z,8.80
2019-04-23T07:00:27.442Z,17.53
2019-04-23T07:04:17.263Z,10.40
2019-04-23T07:08:26.193Z,10.07
2019-04-23T07:12:21.863Z,9.47
2019-04-23T07:16:21.474Z,8.83
2019-04-23T07:20:28.333Z,11.63
2019-04-23T07:24:28.777Z,7.57
2019-04-23T07:28:41.878Z,8.33
2019-04-23T07:32:35.893Z,8.43
2019-04-23T07:40:40.463Z,8.17
2019-04-23T07:44:56.427Z,7.50
2019-04-23T07:49:01.224Z,9.00
2019-04-23T07:57:13.488Z,7.53
2019-04-23T08:01:08.238Z,7.33
2019-04-23T08:05:32.035Z,7.60
2019-04-23T08:09:20.584Z,8.30
2019-04-23T08:13:21.513Z,8.30
2019-04-23T08:25:35.552Z,8.37
2019-04-23T08:29:30.934Z,7.83
2019-04-23T08:33:49.915Z,8.40
2019-04-23T08:45:59.567Z,7.20
2019-04-23T08:49:56.739Z,7.43
2019-04-23T08:54:11.730Z,6.90
2019-04-23T08:58:06.155Z,7.90
2019-04-23T09:06:14.057Z,7.90
2019-04-23T09:10:23.067Z,7.30
2019-04-23T09:14:05.331Z,8.07
2019-04-23T09:26:22.447Z,7.90
2019-04-23T09:30:32.387Z,7.83
2019-04-23T09:34:54.438Z,7.30
2019-04-23T09:38:55.900Z,7.00
2019-04-23T09:43:00.898Z,7.10
2019-04-23T09:47:10.648Z,7.03
2019-04-23T09:55:15.511Z,6.50
2019-04-23T09:59:20.423Z,8.07
2019-04-23T10:03:02.317Z,6.40
2019-04-23T10:07:06.371Z,6.47
2019-04-23T10:10:55.523Z,6.73
2019-04-23T10:15:05.435Z,6.50
2019-04-23T10:19:01.008Z,6.90
2019-04-23T10:23:02.387Z,7.30
2019-04-23T10:27:05.993Z,6.70
2019-04-23T10:31:08.927Z,7.97
2019-04-23T10:35:22.321Z,7.00
2019-04-23T10:39:20.772Z,7.40
2019-04-23T10:43:17.228Z,6.87
2019-04-23T10:48:11.727Z,8.13
2019-04-23T10:52:13.314Z,7.37
2019-04-23T10:56:18.476Z,6.73
2019-04-23T11:00:19.904Z,6.97
2019-04-23T11:04:45.081Z,6.00
2019-04-23T11:08:23.934Z,7.13
2019-04-23T11:12:37.100Z,6.43
2019-04-23T11:20:34.125Z,6.87
2019-04-23T11:28:38.440Z,7.17
2019-04-23T11:36:53.597Z,7.50
2019-04-23T11:40:42.028Z,7.43
2019-04-23T11:44:56.438Z,6.13
2019-04-23T11:57:16.426Z,7.03
2019-04-23T12:05:41.384Z,7.50
2019-04-23T12:09:53.417Z,7.23
2019-04-23T12:14:21.927Z,6.20
2019-04-23T12:22:21.201Z,7.00
2019-04-23T12:26:34.202Z,7.13
2019-04-23T12:30:25.312Z,6.30
2019-04-23T12:34:28.434Z,6.50
2019-04-23T12:38:26.997Z,7.47
2019-04-23T12:42:50.498Z,6.50
2019-04-23T12:46:38.465Z,6.93
2019-04-23T12:58:32.329Z,6.20
2019-04-23T13:02:57.201Z,6.47
2019-04-23T13:06:51.001Z,6.07
2019-04-23T13:10:49.732Z,6.80
2019-04-23T13:15:05.837Z,6.43
2019-04-23T13:19:06.363Z,6.30
2019-04-23T13:27:15.199Z,6.60
2019-04-23T13:35:36.147Z,6.20
2019-04-23T13:39:21.186Z,7.33
2019-04-23T13:43:29.911Z,7.27
2019-04-23T13:47:43.430Z,6.70
2019-04-23T13:51:26.279Z,6.00
2019-04-23T13:55:24.939Z,7.00
2019-04-23T13:59:39.832Z,6.47
2019-04-23T14:03:41.392Z,6.53
2019-04-23T14:11:51.787Z,5.63
2019-04-23T14:19:53.534Z,6.57
2019-04-23T14:28:16.013Z,6.03
2019-04-23T14:32:08.875Z,6.67
2019-04-23T14:40:15.746Z,7.27
2019-04-23T14:44:19.644Z,6.47
2019-04-23T14:48:20.977Z,6.10
2019-04-23T14:52:28.785Z,6.87
2019-04-23T14:56:27.793Z,9.90
2019-04-23T15:00:33.492Z,8.33
2019-04-23T15:04:32.100Z,6.43
2019-04-23T15:08:50.110Z,8.03
2019-04-23T15:12:39.380Z,7.43
2019-04-23T15:16:45.556Z,7.27
2019-04-23T15:21:19.202Z,7.83
2019-04-23T15:25:21.579Z,6.73
2019-04-23T15:28:45.008Z,7.03
2019-04-23T15:33:27.113Z,7.53
2019-04-23T15:37:19.059Z,7.20
2019-04-23T15:41:16.368Z,7.87
2019-04-23T15:45:16.330Z,6.80
2019-04-23T15:49:21.353Z,6.23
2019-04-23T15:53:11.584Z,7.57
2019-04-23T15:57:41.672Z,6.50
2019-04-23T16:01:31.947Z,6.83
2019-04-23T16:05:06.471Z,7.40
2019-04-23T16:09:26.059Z,6.23
2019-04-23T16:14:01.265Z,6.07
2019-04-23T16:17:41.941Z,7.13
2019-04-23T16:21:54.636Z,7.00
2019-04-23T16:25:50.313Z,6.07
2019-04-23T16:30:06.055Z,7.17
2019-04-23T16:34:20.920Z,5.77
2019-04-23T16:38:23.171Z,7.33
2019-04-23T16:46:24.018Z,6.40
2019-04-23T16:50:32.736Z,8.10
2019-04-23T16:54:50.616Z,7.07
2019-04-23T17:02:34.276Z,6.63
2019-04-23T17:06:36.327Z,7.53
2019-04-23T17:10:48.133Z,6.83
2019-04-23T17:14:41.634Z,6.93
2019-04-23T17:18:48.786Z,6.23
2019-04-23T17:22:59.593Z,7.43
2019-04-23T17:26:54.222Z,6.43
2019-04-23T17:31:26.357Z,8.63
2019-04-23T17:35:19.186Z,7.13
2019-04-23T17:39:27.068Z,7.70
2019-04-23T17:43:39.639Z,7.70
2019-04-23T17:51:49.452Z,9.10
2019-04-23T17:56:02.441Z,7.10
2019-04-23T18:00:10.027Z,7.27
2019-04-23T18:04:05.937Z,6.83
2019-04-23T18:07:59.403Z,6.60
2019-04-23T18:12:14.799Z,7.43
2019-04-23T18:16:09.503Z,6.73
2019-04-23T18:20:13.486Z,7.13
2019-04-23T18:24:22.667Z,8.07
2019-04-23T18:28:17.302Z,7.03
2019-04-23T18:36:26.022Z,7.80
2019-04-23T18:40:38.881Z,7.57
2019-04-23T18:52:49.831Z,10.13
2019-04-23T18:57:02.001Z,9.80
2019-04-23T19:01:00.128Z,8.27
2019-04-23T19:05:23.324Z,9.23
2019-04-23T19:09:10.066Z,7.60
2019-04-23T19:13:22.990Z,7.53
2019-04-23T19:17:45.714Z,8.07
2019-04-23T19:25:25.932Z,8.40
2019-04-23T19:37:49.628Z,10.43
2019-04-23T19:41:55.671Z,8.60
2019-04-23T19:45:49.708Z,9.27
2019-04-23T19:49:45.288Z,8.47
2019-04-23T19:57:55.205Z,9.43
2019-04-23T20:02:00.549Z,9.03
2019-04-23T20:06:03.190Z,8.23
2019-04-23T20:14:00.896Z,8.13
2019-04-23T20:18:00.964Z,7.83
2019-04-23T20:22:14.399Z,8.00
2019-04-23T20:34:51.572Z,9.27
2019-04-23T20:42:33.923Z,8.47
2019-04-23T20:46:44.599Z,8.97
2019-04-23T20:50:41.925Z,9.27
2019-04-23T20:55:40.843Z,8.13
2019-04-23T20:58:54.805Z,9.17
2019-04-23T21:03:16.968Z,9.03
2019-04-23T21:07:03.203Z,8.83
2019-04-23T21:11:01.452Z,10.40
2019-04-23T21:15:19.944Z,9.57
2019-04-23T21:19:07.392Z,9.33
2019-04-23T21:23:09.662Z,10.10
2019-04-23T21:27:35.412Z,10.37
2019-04-23T21:31:40.519Z,10.20
2019-04-23T21:35:49.378Z,9.53
2019-04-23T21:40:00.272Z,10.70
2019-04-23T21:48:04.412Z,13.20
2019-04-23T21:56:05.452Z,11.63
2019-04-23T22:00:02.496Z,10.07
2019-04-23T22:04:17.658Z,10.63
2019-04-23T22:08:26.229Z,10.20
2019-04-23T22:12:10.265Z,10.97
2019-04-23T22:16:14.689Z,11.07
2019-04-23T22:20:34.469Z,12.03
2019-04-23T22:24:12.260Z,10.50
2019-04-23T22:28:27.404Z,11.87
2019-04-23T22:32:34.063Z,11.83
2019-04-23T22:36:29.279Z,11.50
2019-04-23T22:40:36.254Z,11.27
2019-04-23T22:44:50.943Z,12.43
2019-04-23T22:48:51.286Z,11.60
2019-04-23T22:52:48.526Z,10.53
2019-04-23T22:56:56.583Z,11.23
2019-04-23T23:01:14.646Z,11.77
2019-04-23T23:09:23.149Z,10.70
2019-04-23T23:13:15.062Z,11.10
2019-04-23T23:17:16.326Z,10.90
2019-04-23T23:21:22.308Z,10.43
2019-04-23T23:25:25.613Z,10.37
2019-04-23T23:29:21.865Z,9.67
2019-04-23T23:33:26.959Z,9.57
2019-04-23T23:37:30.008Z,9.47
2019-04-23T23:41:35.852Z,10.17
2019-04-23T23:49:48.727Z,8.90
2019-04-23T23:53:51.647Z,8.50
2019-04-23T23:57:50.313Z,9.10
